Time;durP1;ratioP1;P1;durP2;ratioP2;P2;SDS_P1;SDS_P2;PMS_P1;PMS_P2;Temp;Humidity;BMP_temperature;BMP_pressure;BME280_temperature;BME280_humidity;BME280_pressure;Samples;Min_cycle;Max_cycle;Signal;HPM_P1;HPM_P2
2023/08/31 00:01:10;;;;;;;0.60;0.47;;;23.20;47.40;;;;;;5028971;28;21056;-65
2023/08/31 00:03:45;;;;;;;0.95;0.50;;;23.30;47.50;;;;;;5029449;28;20099;-66
2023/08/31 00:06:11;;;;;;;0.85;0.40;;;23.20;47.40;;;;;;5026115;28;20056;-65
2023/08/31 00:08:37;;;;;;;0.70;0.40;;;23.20;47.50;;;;;;5032295;28;20067;-64
2023/08/31 00:11:03;;;;;;;0.65;0.40;;;23.20;47.50;;;;;;5025572;28;20042;-68
2023/08/31 00:13:29;;;;;;;0.45;0.30;;;23.20;47.50;;;;;;5042480;28;20025;-66
2023/08/31 00:15:57;;;;;;;0.70;0.40;;;23.20;47.60;;;;;;5008965;28;20033;-64
2023/08/31 00:18:24;;;;;;;0.65;0.30;;;23.20;47.60;;;;;;5030793;28;20459;-66
2023/08/31 00:20:50;;;;;;;0.70;0.40;;;23.20;47.60;;;;;;5010914;28;20036;-66
2023/08/31 00:23:16;;;;;;;1.10;0.38;;;23.20;47.70;;;;;;5028955;28;20021;-66
2023/08/31 00:25:43;;;;;;;1.75;0.70;;;23.20;47.70;;;;;;5026531;28;20059;-66
2023/08/31 00:28:09;;;;;;;0.65;0.20;;;23.20;47.70;;;;;;5028208;28;20060;-67
2023/08/31 00:30:35;;;;;;;0.30;0.20;;;23.20;47.70;;;;;;5009347;28;20420;-64
2023/08/31 00:33:01;;;;;;;0.70;0.50;;;23.20;47.70;;;;;;5027693;28;20922;-65
2023/08/31 00:35:28;;;;;;;0.73;0.30;;;23.20;47.70;;;;;;5012763;28;20078;-68
2023/08/31 00:37:58;;;;;;;0.85;0.38;;;23.20;47.80;;;;;;5029036;28;20108;-65
2023/08/31 00:40:39;;;;;;;0.47;0.30;;;23.20;47.80;;;;;;5009681;28;20056;-64
2023/08/31 00:43:05;;;;;;;1.42;0.40;;;23.20;47.80;;;;;;5026075;28;20128;-67
2023/08/31 00:45:31;;;;;;;1.15;0.40;;;23.10;47.70;;;;;;5036450;28;20150;-65
2023/08/31 00:47:57;;;;;;;0.35;0.30;;;23.10;47.80;;;;;;5009992;28;20417;-66
2023/08/31 00:50:23;;;;;;;0.30;0.25;;;23.10;47.80;;;;;;5038211;28;20025;-66
2023/08/31 00:52:49;;;;;;;0.60;0.40;;;23.10;47.80;;;;;;5031410;28;20029;-69
2023/08/31 00:55:17;;;;;;;0.60;0.30;;;23.10;47.90;;;;;;5009603;28;20172;-65
2023/08/31 00:57:44;;;;;;;1.17;0.55;;;23.10;47.90;;;;;;5034520;28;20108;-67
2023/08/31 01:00:13;;;;;;;1.05;0.40;;;23.10;47.90;;;;;;5010739;28;20308;-69
2023/08/31 01:02:53;;;;;;;0.50;0.32;;;23.10;47.90;;;;;;5027685;28;20029;-65
2023/08/31 01:05:27;;;;;;;0.60;0.30;;;23.10;47.90;;;;;;5028991;28;20025;-66
2023/08/31 01:08:09;;;;;;;0.68;0.40;;;23.10;47.90;;;;;;5027915;28;20148;-64
2023/08/31 01:11:13;;;;;;;0.65;0.40;;;23.10;47.90;;;;;;5028134;28;20420;-67
2023/08/31 01:13:41;;;;;;;0.80;0.40;;;23.10;47.90;;;;;;5027077;28;20093;-65
2023/08/31 01:16:08;;;;;;;0.80;0.40;;;23.10;48.00;;;;;;5012136;28;20022;-67
2023/08/31 01:18:35;;;;;;;1.13;0.60;;;23.00;47.90;;;;;;5032074;28;20043;-66
2023/08/31 01:21:25;;;;;;;0.85;0.50;;;23.10;48.00;;;;;;5032909;28;20341;-70
2023/08/31 01:23:57;;;;;;;0.85;0.60;;;23.10;48.00;;;;;;5028450;28;20076;-67
2023/08/31 01:26:24;;;;;;;0.57;0.40;;;23.00;48.00;;;;;;5028118;28;20037;-69
2023/08/31 01:28:52;;;;;;;0.82;0.40;;;23.00;48.00;;;;;;5033962;28;20025;-68
2023/08/31 01:31:18;;;;;;;0.77;0.45;;;23.00;48.00;;;;;;5030655;28;20670;-70
2023/08/31 01:33:47;;;;;;;1.48;0.40;;;23.00;48.00;;;;;;5016414;28;20025;-69
2023/08/31 01:36:35;;;;;;;1.00;0.57;;;23.00;48.00;;;;;;5018531;28;20167;-68
2023/08/31 01:39:38;;;;;;;1.40;0.82;;;23.00;48.00;;;;;;5032932;28;20080;-69
2023/08/31 01:42:06;;;;;;;1.00;0.60;;;23.00;48.10;;;;;;5027634;28;20078;-67
2023/08/31 01:44:35;;;;;;;0.73;0.50;;;23.00;48.10;;;;;;5033626;28;20095;-65
2023/08/31 01:47:06;;;;;;;1.25;0.70;;;23.00;48.10;;;;;;5015307;28;20049;-66
2023/08/31 01:49:41;;;;;;;0.85;0.70;;;23.00;48.10;;;;;;5008910;28;20184;-66
2023/08/31 01:52:07;;;;;;;1.92;0.60;;;23.00;48.20;;;;;;5015673;28;20025;-65
2023/08/31 01:54:33;;;;;;;0.80;0.50;;;23.00;48.20;;;;;;5015225;28;20025;-67
2023/08/31 01:56:59;;;;;;;1.05;0.75;;;23.00;48.20;;;;;;5013882;28;20083;-69
2023/08/31 01:59:27;;;;;;;0.88;0.50;;;23.00;48.20;;;;;;5033052;28;20049;-64
2023/08/31 02:01:53;;;;;;;1.10;0.70;;;23.00;48.20;;;;;;5019485;28;20072;-68
2023/08/31 02:04:18;;;;;;;0.98;0.60;;;22.90;48.20;;;;;;5009737;28;20446;-66
2023/08/31 02:06:44;;;;;;;1.00;0.50;;;23.00;48.30;;;;;;5036622;28;20119;-64
2023/08/31 02:09:10;;;;;;;1.25;0.70;;;23.00;48.30;;;;;;5037231;28;20030;-65
2023/08/31 02:11:37;;;;;;;1.83;0.70;;;23.00;48.30;;;;;;5037882;28;20124;-66
2023/08/31 02:14:07;;;;;;;1.30;0.60;;;22.90;48.20;;;;;;5012537;28;20436;-65
2023/08/31 02:16:34;;;;;;;1.33;0.60;;;22.90;48.30;;;;;;5022830;28;20069;-67
2023/08/31 02:19:00;;;;;;;0.60;0.50;;;22.90;48.30;;;;;;5012871;28;20439;-67
2023/08/31 02:21:26;;;;;;;1.10;0.85;;;22.90;48.30;;;;;;5016378;28;20033;-69
2023/08/31 02:23:52;;;;;;;0.70;0.55;;;22.90;48.40;;;;;;5031953;28;20029;-67
2023/08/31 02:26:18;;;;;;;0.52;0.52;;;22.90;48.40;;;;;;5032090;28;20463;-69
2023/08/31 02:28:46;;;;;;;0.77;0.50;;;22.90;48.40;;;;;;5020687;28;20382;-65
2023/08/31 02:31:14;;;;;;;1.20;0.60;;;22.90;49.10;;;;;;5006044;28;20171;-65
2023/08/31 02:33:40;;;;;;;0.80;0.60;;;22.90;48.40;;;;;;5032493;28;20041;-65
2023/08/31 02:36:06;;;;;;;1.35;0.60;;;22.90;48.50;;;;;;5034456;28;20360;-66
2023/08/31 02:38:32;;;;;;;0.63;0.57;;;22.90;48.50;;;;;;5031644;28;21546;-70
2023/08/31 02:40:58;;;;;;;1.30;0.68;;;22.90;48.50;;;;;;5029669;28;20163;-65
2023/08/31 02:43:25;;;;;;;1.58;0.60;;;22.90;48.50;;;;;;5032277;28;20022;-65
2023/08/31 02:46:02;;;;;;;0.88;0.60;;;22.90;48.60;;;;;;5033793;28;20029;-65
2023/08/31 02:48:29;;;;;;;1.33;0.80;;;22.90;48.60;;;;;;5030636;28;20037;-67
2023/08/31 02:50:58;;;;;;;0.90;0.55;;;22.90;48.60;;;;;;5034961;28;20452;-64
2023/08/31 02:53:24;;;;;;;1.38;0.80;;;22.90;48.60;;;;;;5013169;28;20130;-68
2023/08/31 02:55:50;;;;;;;1.58;0.77;;;22.90;48.60;;;;;;5018204;28;20354;-66
2023/08/31 02:58:16;;;;;;;1.13;0.60;;;22.90;48.70;;;;;;5018119;28;20322;-65
2023/08/31 03:00:45;;;;;;;1.25;0.70;;;22.90;48.70;;;;;;5018441;28;20022;-67
2023/08/31 03:03:11;;;;;;;1.50;0.70;;;22.90;48.70;;;;;;5045462;28;20362;-68
2023/08/31 03:05:37;;;;;;;1.45;0.70;;;22.80;48.70;;;;;;5015482;28;20408;-68
2023/08/31 03:08:03;;;;;;;2.05;0.70;;;22.90;48.70;;;;;;5034901;28;20128;-65
2023/08/31 03:10:29;;;;;;;2.22;0.80;;;22.80;48.70;;;;;;4999574;28;20507;-66
2023/08/31 03:12:55;;;;;;;1.92;0.80;;;22.80;48.70;;;;;;5031885;28;20026;-64
2023/08/31 03:15:21;;;;;;;1.02;0.70;;;22.80;48.80;;;;;;5031422;28;20034;-68
2023/08/31 03:17:47;;;;;;;1.88;0.95;;;22.80;48.80;;;;;;5031017;28;20033;-66
2023/08/31 03:20:12;;;;;;;1.05;0.77;;;22.80;48.80;;;;;;5031175;28;20029;-66
2023/08/31 03:22:38;;;;;;;0.90;0.68;;;22.80;48.80;;;;;;5033944;28;20083;-69
2023/08/31 03:25:04;;;;;;;1.55;0.80;;;22.80;48.80;;;;;;5016098;28;20017;-66
2023/08/31 03:27:30;;;;;;;0.90;0.70;;;22.80;48.90;;;;;;5017382;28;20037;-68
2023/08/31 03:29:56;;;;;;;0.98;0.70;;;22.80;48.90;;;;;;5014240;28;20059;-64
2023/08/31 03:32:22;;;;;;;1.23;0.60;;;22.80;48.90;;;;;;5012724;28;20033;-65
2023/08/31 03:34:48;;;;;;;1.42;0.80;;;22.80;49.00;;;;;;5015884;28;20048;-65
2023/08/31 03:37:15;;;;;;;1.85;0.80;;;22.80;49.00;;;;;;5013563;28;20468;-66
2023/08/31 03:39:42;;;;;;;1.55;0.60;;;22.80;49.00;;;;;;5013138;28;20034;-67
2023/08/31 03:42:09;;;;;;;1.38;0.77;;;22.80;49.00;;;;;;5037690;28;20038;-66
2023/08/31 03:44:37;;;;;;;1.33;0.73;;;22.80;49.10;;;;;;5030794;28;20042;-65
2023/08/31 03:47:03;;;;;;;0.90;0.70;;;22.80;49.10;;;;;;5012848;28;20119;-66
2023/08/31 03:49:30;;;;;;;1.40;0.70;;;22.80;49.10;;;;;;5011832;28;20025;-64
2023/08/31 03:51:55;;;;;;;1.00;0.77;;;22.80;49.10;;;;;;5028559;28;20123;-66
2023/08/31 03:54:21;;;;;;;1.13;0.70;;;22.80;49.10;;;;;;5033455;28;20121;-67
2023/08/31 03:56:47;;;;;;;1.45;0.70;;;22.80;49.10;;;;;;5012818;28;20044;-66
2023/08/31 03:59:14;;;;;;;1.55;0.95;;;22.80;49.10;;;;;;5012684;28;20112;-68
2023/08/31 04:01:40;;;;;;;1.27;0.70;;;22.80;49.20;;;;;;5043377;28;20112;-65
2023/08/31 04:04:06;;;;;;;1.55;0.77;;;22.80;49.20;;;;;;5016872;28;20429;-66
2023/08/31 04:06:31;;;;;;;3.72;0.80;;;22.80;49.30;;;;;;5031270;28;20053;-68
2023/08/31 04:08:57;;;;;;;1.23;0.75;;;22.80;49.30;;;;;;5032880;28;20637;-67
2023/08/31 04:11:25;;;;;;;1.48;0.90;;;22.80;49.30;;;;;;5009884;28;20113;-67
2023/08/31 04:13:51;;;;;;;1.45;0.75;;;22.80;49.30;;;;;;5008337;28;20057;-66
2023/08/31 04:16:16;;;;;;;0.70;0.70;;;22.80;49.30;;;;;;5006261;28;20068;-67
2023/08/31 04:18:42;;;;;;;0.98;0.65;;;22.80;49.40;;;;;;5003474;28;20037;-67
2023/08/31 04:21:08;;;;;;;1.33;0.93;;;22.70;49.30;;;;;;5028829;28;20033;-66
2023/08/31 04:23:34;;;;;;;2.15;0.90;;;22.70;49.40;;;;;;5031194;28;20116;-64
2023/08/31 04:26:00;;;;;;;1.40;0.70;;;22.80;49.50;;;;;;5028903;28;20037;-66
2023/08/31 04:28:26;;;;;;;1.23;0.68;;;22.70;49.40;;;;;;5028763;28;20160;-67
2023/08/31 04:30:52;;;;;;;1.30;0.90;;;22.70;49.40;;;;;;5028509;28;20089;-67
2023/08/31 04:33:18;;;;;;;1.30;0.80;;;22.70;49.50;;;;;;5028360;28;20044;-66
2023/08/31 04:35:44;;;;;;;1.67;0.88;;;22.70;49.50;;;;;;5029975;28;20385;-65
2023/08/31 04:38:10;;;;;;;0.90;0.63;;;22.70;49.50;;;;;;5029142;28;20032;-68
2023/08/31 04:40:39;;;;;;;2.17;0.90;;;22.70;49.50;;;;;;5028428;28;20029;-64
2023/08/31 04:43:05;;;;;;;1.05;0.65;;;22.70;49.60;;;;;;5011704;28;20041;-67
2023/08/31 04:45:30;;;;;;;1.80;0.85;;;22.70;49.60;;;;;;5029247;28;20017;-66
2023/08/31 04:47:56;;;;;;;1.08;0.80;;;22.70;49.60;;;;;;5027529;28;20281;-67
2023/08/31 04:50:22;;;;;;;1.30;0.70;;;22.70;49.70;;;;;;5029308;28;20128;-66
2023/08/31 04:52:48;;;;;;;1.15;0.80;;;22.70;49.70;;;;;;5001652;28;20107;-67
2023/08/31 04:55:14;;;;;;;0.80;0.70;;;22.70;49.70;;;;;;5028937;28;20029;-67
2023/08/31 04:57:40;;;;;;;1.27;0.70;;;22.70;49.70;;;;;;5028650;28;20683;-66
2023/08/31 05:00:09;;;;;;;1.35;0.75;;;22.70;49.70;;;;;;5028263;28;20038;-64
2023/08/31 05:02:35;;;;;;;0.77;0.60;;;22.70;49.70;;;;;;5029548;28;20416;-64
2023/08/31 05:05:00;;;;;;;1.88;0.70;;;22.70;49.70;;;;;;5027925;28;20025;-65
2023/08/31 05:07:26;;;;;;;1.50;0.88;;;22.70;49.70;;;;;;5027985;28;20048;-65
2023/08/31 05:09:52;;;;;;;1.02;0.63;;;22.70;49.80;;;;;;5031586;28;20025;-66
2023/08/31 05:12:18;;;;;;;1.23;0.60;;;22.70;49.80;;;;;;5032306;28;20338;-64
2023/08/31 05:14:44;;;;;;;1.10;0.75;;;22.70;49.80;;;;;;5032633;28;20021;-67
2023/08/31 05:17:10;;;;;;;2.50;0.60;;;22.70;49.90;;;;;;5032574;28;20025;-64
2023/08/31 05:19:36;;;;;;;0.73;0.70;;;22.70;49.90;;;;;;5032976;28;20052;-66
2023/08/31 05:22:02;;;;;;;0.82;0.68;;;22.70;49.90;;;;;;5017337;28;20025;-63
2023/08/31 05:24:28;;;;;;;1.80;0.75;;;22.70;50.00;;;;;;5032774;28;20072;-66
2023/08/31 05:26:53;;;;;;;1.30;0.95;;;22.70;50.00;;;;;;5014841;28;20033;-64
2023/08/31 05:29:19;;;;;;;1.05;0.73;;;22.70;50.00;;;;;;5031737;28;20318;-65
2023/08/31 05:31:45;;;;;;;2.17;0.82;;;22.70;50.00;;;;;;5017849;28;20341;-65
2023/08/31 05:34:17;;;;;;;1.25;0.80;;;22.70;50.10;;;;;;5033081;28;20060;-65
2023/08/31 05:36:43;;;;;;;0.80;0.70;;;22.70;50.10;;;;;;5032055;28;20112;-64
2023/08/31 05:39:09;;;;;;;1.80;0.80;;;22.70;50.10;;;;;;5002751;28;20373;-64
2023/08/31 05:41:35;;;;;;;2.42;0.93;;;22.70;50.20;;;;;;5005609;28;20052;-66
2023/08/31 05:44:02;;;;;;;2.53;0.90;;;22.70;50.10;;;;;;5004975;28;20399;-65
2023/08/31 05:46:28;;;;;;;1.35;0.88;;;22.70;50.20;;;;;;5035964;28;20051;-66
2023/08/31 05:48:54;;;;;;;1.55;0.80;;;22.70;50.20;;;;;;5038819;28;20092;-67
2023/08/31 05:51:20;;;;;;;1.08;0.70;;;22.70;50.20;;;;;;5040136;28;20425;-64
2023/08/31 05:53:46;;;;;;;3.08;0.93;;;22.70;50.30;;;;;;5030795;28;20037;-65
2023/08/31 05:56:12;;;;;;;1.75;1.00;;;22.70;50.40;;;;;;5034406;28;20041;-64
2023/08/31 05:58:38;;;;;;;1.10;0.70;;;22.70;50.40;;;;;;5027407;28;20052;-64
2023/08/31 06:01:05;;;;;;;2.70;0.90;;;22.70;50.40;;;;;;5030872;28;20069;-64
2023/08/31 06:03:31;;;;;;;0.68;0.68;;;22.70;50.50;;;;;;5032875;28;20025;-65
2023/08/31 06:05:58;;;;;;;1.38;0.70;;;22.70;50.50;;;;;;5031504;28;20051;-65
2023/08/31 06:08:25;;;;;;;3.03;0.80;;;22.70;50.60;;;;;;5029503;28;20033;-66
2023/08/31 06:10:51;;;;;;;1.25;0.90;;;22.70;50.60;;;;;;5033168;28;20022;-66
2023/08/31 06:13:17;;;;;;;1.17;0.88;;;22.70;50.70;;;;;;5031172;28;20170;-66
2023/08/31 06:15:46;;;;;;;0.80;0.70;;;22.70;50.70;;;;;;5030585;28;20057;-65
2023/08/31 06:18:12;;;;;;;1.35;0.93;;;22.70;50.70;;;;;;5025596;28;20337;-66
2023/08/31 06:20:39;;;;;;;1.42;0.80;;;22.70;50.70;;;;;;5030968;28;20025;-64
2023/08/31 06:23:04;;;;;;;1.63;0.95;;;22.70;50.80;;;;;;5002282;28;20368;-65
2023/08/31 06:25:31;;;;;;;1.17;0.80;;;22.70;50.80;;;;;;5041074;28;20044;-66
2023/08/31 06:27:58;;;;;;;1.00;0.60;;;22.70;50.80;;;;;;5029400;28;20041;-66
2023/08/31 06:30:24;;;;;;;0.98;0.50;;;22.70;50.90;;;;;;5033910;28;20101;-68
2023/08/31 06:32:50;;;;;;;2.03;1.10;;;22.70;50.90;;;;;;5033083;28;20436;-64
2023/08/31 06:35:16;;;;;;;1.38;0.80;;;22.70;51.00;;;;;;5034115;28;20120;-65
2023/08/31 06:37:43;;;;;;;1.45;0.80;;;22.70;51.00;;;;;;5033557;28;20112;-66
2023/08/31 06:40:10;;;;;;;1.75;1.20;;;22.70;51.00;;;;;;5029891;28;20053;-68
2023/08/31 06:42:37;;;;;;;1.42;1.08;;;22.70;51.00;;;;;;5033374;28;20095;-65
2023/08/31 06:45:07;;;;;;;1.52;0.80;;;22.70;51.00;;;;;;5016007;28;20029;-66
2023/08/31 06:47:34;;;;;;;1.08;0.70;;;22.80;51.00;;;;;;5033080;28;20072;-65
2023/08/31 06:50:00;;;;;;;0.80;0.65;;;22.80;51.00;;;;;;5033166;28;20029;-67
2023/08/31 06:52:28;;;;;;;2.92;0.80;;;22.80;51.00;;;;;;5042251;28;20093;-66
2023/08/31 06:54:57;;;;;;;2.35;0.93;;;22.80;51.00;;;;;;5053599;28;20344;-68
2023/08/31 06:57:24;;;;;;;1.38;0.82;;;22.80;51.00;;;;;;5053807;28;20324;-67
2023/08/31 06:59:50;;;;;;;1.27;0.93;;;22.80;51.00;;;;;;5053102;28;20024;-64
2023/08/31 07:02:16;;;;;;;0.85;0.70;;;22.80;51.00;;;;;;5053567;28;20071;-66
2023/08/31 07:04:43;;;;;;;2.08;0.93;;;22.80;50.90;;;;;;5053034;28;20434;-66
2023/08/31 07:07:09;;;;;;;1.30;0.80;;;22.80;51.00;;;;;;5042652;28;20038;-65
2023/08/31 07:09:35;;;;;;;1.58;0.80;;;22.80;51.00;;;;;;5015701;28;20424;-65
2023/08/31 07:12:02;;;;;;;1.45;0.88;;;22.80;50.90;;;;;;5033394;28;20449;-63
2023/08/31 07:14:28;;;;;;;1.45;0.77;;;22.80;50.90;;;;;;5032798;28;20433;-67
2023/08/31 07:16:54;;;;;;;1.58;1.00;;;22.80;50.90;;;;;;5033328;28;20091;-64
2023/08/31 07:19:19;;;;;;;1.67;0.88;;;22.80;50.90;;;;;;5014884;28;20030;-64
2023/08/31 07:21:46;;;;;;;1.23;0.90;;;22.80;50.90;;;;;;5036496;28;20402;-66
2023/08/31 07:24:13;;;;;;;1.15;0.90;;;22.80;50.90;;;;;;5032751;28;20033;-67
2023/08/31 07:26:39;;;;;;;2.00;0.98;;;22.80;50.90;;;;;;5032215;28;20385;-64
2023/08/31 07:29:05;;;;;;;1.52;0.75;;;22.80;50.90;;;;;;5033145;28;20066;-64
2023/08/31 07:31:32;;;;;;;1.63;0.90;;;22.80;50.90;;;;;;5032140;28;20057;-67
2023/08/31 07:33:58;;;;;;;2.00;0.80;;;22.80;50.90;;;;;;5032794;28;20382;-67
2023/08/31 07:36:24;;;;;;;1.88;0.98;;;22.80;51.50;;;;;;5032833;28;20147;-67
2023/08/31 07:38:50;;;;;;;1.60;0.93;;;22.80;50.90;;;;;;5032600;28;20034;-65
2023/08/31 07:41:16;;;;;;;2.47;1.13;;;22.80;50.90;;;;;;5039323;28;20090;-65
2023/08/31 07:43:42;;;;;;;1.15;0.77;;;22.80;50.90;;;;;;5034875;28;20116;-69
2023/08/31 07:46:08;;;;;;;2.03;0.90;;;22.80;51.50;;;;;;5052371;28;20409;-66
2023/08/31 07:48:34;;;;;;;1.38;0.80;;;22.90;50.90;;;;;;5034523;28;20140;-66
2023/08/31 07:51:00;;;;;;;1.80;1.35;;;22.90;50.90;;;;;;5034718;28;20037;-64
2023/08/31 07:53:26;;;;;;;2.47;1.48;;;22.90;51.00;;;;;;5052687;28;20029;-65
2023/08/31 07:55:56;;;;;;;2.30;1.40;;;22.90;51.00;;;;;;5027004;28;20030;-64
2023/08/31 07:58:26;;;;;;;2.17;1.58;;;22.90;51.00;;;;;;5032449;28;20072;-68
2023/08/31 08:00:56;;;;;;;2.63;1.65;;;22.80;50.90;;;;;;5020326;28;20025;-67
2023/08/31 08:03:23;;;;;;;2.38;1.45;;;22.90;51.00;;;;;;5052446;28;20467;-66
2023/08/31 08:05:49;;;;;;;2.17;1.52;;;22.90;51.00;;;;;;5034652;28;20060;-65
2023/08/31 08:08:15;;;;;;;3.40;1.67;;;22.90;51.00;;;;;;5028380;28;20199;-64
2023/08/31 08:10:43;;;;;;;1.92;1.10;;;22.90;51.00;;;;;;5014787;28;20109;-66
2023/08/31 08:13:09;;;;;;;2.20;1.30;;;22.90;51.00;;;;;;5032622;28;20033;-68
2023/08/31 08:15:35;;;;;;;2.20;1.25;;;22.90;51.00;;;;;;5032307;28;20489;-67
2023/08/31 08:18:01;;;;;;;2.20;1.33;;;22.90;51.00;;;;;;5032167;28;20155;-66
2023/08/31 08:20:29;;;;;;;2.25;1.10;;;22.90;51.00;;;;;;5047897;28;20049;-64
2023/08/31 08:22:57;;;;;;;1.23;0.95;;;22.90;51.00;;;;;;5034006;28;20424;-65
2023/08/31 08:25:26;;;;;;;1.05;0.88;;;22.90;51.00;;;;;;5034742;28;20450;-66
2023/08/31 08:27:52;;;;;;;2.03;1.30;;;22.90;51.10;;;;;;5030796;28;20045;-65
2023/08/31 08:30:19;;;;;;;1.92;1.23;;;22.90;51.10;;;;;;5035490;28;20445;-66
2023/08/31 08:32:45;;;;;;;2.22;0.95;;;22.90;51.10;;;;;;5024506;28;20033;-66
2023/08/31 08:35:11;;;;;;;1.38;1.10;;;22.90;51.10;;;;;;5014751;28;20449;-67
2023/08/31 08:37:37;;;;;;;2.05;1.10;;;23.00;51.20;;;;;;5032274;28;20102;-66
2023/08/31 08:40:06;;;;;;;1.65;0.90;;;23.00;51.20;;;;;;5030427;28;20420;-66
2023/08/31 08:42:38;;;;;;;1.35;0.90;;;22.90;51.20;;;;;;5031027;28;20041;-67
2023/08/31 08:45:08;;;;;;;1.35;0.95;;;23.00;51.30;;;;;;5026556;28;20026;-67
2023/08/31 08:47:35;;;;;;;2.08;1.00;;;23.00;51.30;;;;;;4990587;28;20108;-67
2023/08/31 08:50:02;;;;;;;1.70;0.88;;;23.00;51.40;;;;;;5028013;28;20101;-69
2023/08/31 08:52:28;;;;;;;1.48;0.80;;;23.00;51.40;;;;;;4992242;28;20060;-68
2023/08/31 08:54:57;;;;;;;2.47;1.17;;;23.00;51.40;;;;;;4992576;28;20462;-69
2023/08/31 08:57:24;;;;;;;1.27;0.80;;;23.00;51.50;;;;;;4992708;28;20205;-66
2023/08/31 08:59:50;;;;;;;1.58;1.02;;;23.00;51.50;;;;;;4992482;28;20113;-67
2023/08/31 09:02:17;;;;;;;1.80;1.00;;;23.00;51.50;;;;;;5005742;28;20117;-66
2023/08/31 09:04:43;;;;;;;2.33;0.98;;;23.10;51.60;;;;;;5024547;28;20040;-67
2023/08/31 09:07:09;;;;;;;2.10;1.27;;;23.00;51.60;;;;;;5008891;28;20053;-66
2023/08/31 09:09:50;;;;;;;2.00;0.80;;;23.00;51.60;;;;;;5015172;28;20106;-69
2023/08/31 09:12:16;;;;;;;1.27;0.80;;;23.00;51.60;;;;;;4992191;28;20085;-69
2023/08/31 09:14:42;;;;;;;2.72;1.17;;;23.10;51.80;;;;;;4994343;28;20052;-67
2023/08/31 09:17:08;;;;;;;2.72;0.82;;;23.10;51.90;;;;;;5012790;28;20026;-67
2023/08/31 09:19:34;;;;;;;1.42;1.10;;;23.10;52.00;;;;;;5025825;28;20361;-68
2023/08/31 09:22:00;;;;;;;1.95;0.90;;;23.10;52.00;;;;;;5016404;28;20056;-64
2023/08/31 09:24:26;;;;;;;4.35;1.00;;;23.20;52.20;;;;;;4995123;28;20396;-68
2023/08/31 09:26:55;;;;;;;2.13;1.00;;;23.10;52.30;;;;;;5001559;28;20105;-65
2023/08/31 09:29:21;;;;;;;2.25;0.90;;;23.20;52.50;;;;;;5010561;28;20037;-65
2023/08/31 09:31:47;;;;;;;1.35;0.77;;;23.20;52.50;;;;;;5008524;28;20046;-64
2023/08/31 09:34:15;;;;;;;2.20;0.88;;;23.20;52.50;;;;;;5008158;28;20100;-64
2023/08/31 09:36:42;;;;;;;1.67;0.77;;;23.20;52.50;;;;;;5012271;28;20033;-63
2023/08/31 09:39:09;;;;;;;2.53;0.88;;;23.20;52.50;;;;;;5008979;28;20029;-62
2023/08/31 09:41:36;;;;;;;1.40;0.90;;;23.30;52.40;;;;;;5009027;28;20115;-64
2023/08/31 09:44:18;;;;;;;2.53;0.80;;;23.30;52.40;;;;;;5016597;28;20092;-66
2023/08/31 09:46:45;;;;;;;1.08;0.65;;;23.30;52.30;;;;;;5017809;28;20049;-66
2023/08/31 09:49:15;;;;;;;0.98;0.80;;;23.30;52.20;;;;;;5031612;28;20120;-66
2023/08/31 09:51:48;;;;;;;1.27;0.73;;;23.30;52.00;;;;;;5033707;28;20464;-64
2023/08/31 09:54:16;;;;;;;2.50;0.60;;;23.30;51.90;;;;;;5012463;28;20037;-66
2023/08/31 09:56:43;;;;;;;2.08;0.95;;;23.30;51.70;;;;;;5015138;28;20386;-66
2023/08/31 09:59:14;;;;;;;1.70;0.70;;;23.30;51.60;;;;;;5015657;28;20040;-63
2023/08/31 10:01:41;;;;;;;1.60;0.70;;;23.40;51.50;;;;;;5018774;28;20398;-64
2023/08/31 10:04:08;;;;;;;1.63;0.80;;;23.40;51.30;;;;;;5034909;28;20364;-65
2023/08/31 10:06:40;;;;;;;2.13;0.60;;;23.40;51.20;;;;;;5014607;28;20409;-63
2023/08/31 10:09:09;;;;;;;1.15;0.70;;;23.40;51.10;;;;;;5031295;28;20091;-64
2023/08/31 10:11:36;;;;;;;1.48;0.60;;;23.40;50.90;;;;;;5033670;28;20604;-66
2023/08/31 10:14:04;;;;;;;1.98;0.73;;;23.40;50.90;;;;;;5022514;28;20105;-66
2023/08/31 10:16:30;;;;;;;1.73;0.70;;;23.40;50.80;;;;;;5036453;28;20086;-64
2023/08/31 10:18:57;;;;;;;1.60;0.73;;;23.40;50.70;;;;;;5034868;28;20045;-66
2023/08/31 10:21:23;;;;;;;1.55;0.77;;;23.40;50.70;;;;;;5033309;28;20036;-66
2023/08/31 10:23:50;;;;;;;1.13;0.68;;;23.40;50.60;;;;;;5006549;28;20025;-66
2023/08/31 10:26:30;;;;;;;1.23;0.70;;;23.40;50.60;;;;;;5031149;28;20063;-66
2023/08/31 10:28:57;;;;;;;1.13;0.65;;;23.40;50.60;;;;;;5030768;28;20120;-66
2023/08/31 10:31:24;;;;;;;2.97;0.60;;;23.40;50.70;;;;;;5009539;28;20179;-66
2023/08/31 10:34:06;;;;;;;1.52;0.70;;;23.40;50.80;;;;;;5031623;28;20021;-63
2023/08/31 10:36:40;;;;;;;1.98;0.70;;;23.40;51.00;;;;;;5028362;28;20131;-66
2023/08/31 10:39:12;;;;;;;2.72;0.63;;;23.40;51.20;;;;;;5029909;28;20108;-63
2023/08/31 10:41:38;;;;;;;2.60;0.60;;;23.40;51.30;;;;;;5031682;28;20021;-65
2023/08/31 10:44:22;;;;;;;1.80;0.70;;;23.40;51.30;;;;;;5007692;28;20333;-64
2023/08/31 10:46:49;;;;;;;1.02;0.70;;;23.50;51.50;;;;;;5024529;28;20041;-64
2023/08/31 10:49:17;;;;;;;2.13;0.80;;;23.50;51.40;;;;;;5030759;28;20423;-64
2023/08/31 10:51:44;;;;;;;1.38;0.63;;;23.50;51.40;;;;;;5035110;28;20037;-65
2023/08/31 10:54:13;;;;;;;1.25;0.70;;;23.50;51.30;;;;;;5037494;28;20033;-65
2023/08/31 10:56:57;;;;;;;1.95;0.63;;;23.50;51.20;;;;;;5031824;28;20025;-67
2023/08/31 10:59:25;;;;;;;1.08;0.60;;;23.60;51.10;;;;;;5030732;28;20396;-62
2023/08/31 11:01:55;;;;;;;1.20;0.60;;;23.60;51.00;;;;;;5009345;28;20075;-65
2023/08/31 11:04:25;;;;;;;0.77;0.40;;;23.60;50.80;;;;;;5026292;28;20106;-65
2023/08/31 11:07:14;;;;;;;1.67;0.60;;;23.60;50.60;;;;;;5028913;28;20094;-65
2023/08/31 11:09:42;;;;;;;1.30;0.73;;;23.60;50.40;;;;;;5025789;28;20538;-68
2023/08/31 11:12:09;;;;;;;1.55;0.60;;;23.60;50.30;;;;;;5029449;28;20095;-65
2023/08/31 11:14:35;;;;;;;2.08;1.00;;;23.70;50.20;;;;;;5030257;28;20032;-66
2023/08/31 11:17:03;;;;;;;0.90;0.63;;;23.70;50.00;;;;;;5029715;28;20052;-68
2023/08/31 11:19:29;;;;;;;0.60;0.55;;;23.70;49.90;;;;;;5033289;28;20072;-67
2023/08/31 11:21:55;;;;;;;2.17;0.70;;;23.80;49.80;;;;;;5037902;28;20052;-70
2023/08/31 11:24:22;;;;;;;1.63;0.70;;;23.80;49.60;;;;;;5009274;28;20029;-68
2023/08/31 11:26:51;;;;;;;1.75;0.63;;;23.90;49.50;;;;;;5032273;28;20467;-67
2023/08/31 11:29:17;;;;;;;0.75;0.50;;;24.00;49.80;;;;;;5027659;28;20029;-69
2023/08/31 11:31:43;;;;;;;1.50;0.60;;;24.10;48.90;;;;;;5000571;28;20436;-68
2023/08/31 11:34:17;;;;;;;1.25;0.40;;;24.20;49.40;;;;;;5038450;28;20420;-67
2023/08/31 11:36:44;;;;;;;0.80;0.40;;;24.30;48.60;;;;;;5042276;28;20340;-68
2023/08/31 11:39:10;;;;;;;2.95;0.40;;;24.40;48.50;;;;;;5043831;28;20119;-69
2023/08/31 11:41:41;;;;;;;1.13;0.57;;;24.50;48.20;;;;;;5025821;28;20356;-65
2023/08/31 11:44:13;;;;;;;1.00;0.50;;;24.60;48.10;;;;;;5039124;28;21537;-66
2023/08/31 11:46:41;;;;;;;0.80;0.50;;;24.70;47.80;;;;;;5034672;28;20483;-66
2023/08/31 11:49:08;;;;;;;0.40;0.40;;;24.90;47.70;;;;;;5043676;28;20032;-67
2023/08/31 11:51:39;;;;;;;0.65;0.50;;;24.90;47.40;;;;;;5034160;28;20029;-68
2023/08/31 11:54:05;;;;;;;1.15;0.43;;;25.00;47.10;;;;;;5032753;28;20029;-65
2023/08/31 11:56:51;;;;;;;2.60;0.65;;;25.10;46.80;;;;;;5032739;28;20033;-65
2023/08/31 11:59:19;;;;;;;2.08;0.82;;;25.20;46.30;;;;;;5036953;28;20314;-69
2023/08/31 12:01:50;;;;;;;0.57;0.40;;;25.20;46.00;;;;;;5032923;28;20099;-67
2023/08/31 12:04:20;;;;;;;0.88;0.35;;;25.10;45.50;;;;;;5025481;28;20104;-70
2023/08/31 12:06:55;;;;;;;1.15;0.40;;;25.20;45.30;;;;;;5034462;28;20040;-70
2023/08/31 12:09:21;;;;;;;1.67;0.70;;;25.10;44.90;;;;;;5052585;28;20051;-66
2023/08/31 12:11:51;;;;;;;1.45;0.60;;;25.10;44.70;;;;;;5052391;28;20079;-69
2023/08/31 12:14:22;;;;;;;0.95;0.50;;;25.10;44.40;;;;;;5052010;28;20126;-67
2023/08/31 12:16:49;;;;;;;1.75;0.82;;;25.00;44.10;;;;;;5052143;28;20090;-66
2023/08/31 12:19:15;;;;;;;0.82;0.52;;;25.00;44.00;;;;;;5032233;28;20114;-69
2023/08/31 12:21:44;;;;;;;1.02;0.43;;;25.00;43.80;;;;;;5050853;28;20032;-67
2023/08/31 12:24:11;;;;;;;0.50;0.40;;;25.00;43.60;;;;;;5027826;28;20071;-67
2023/08/31 12:26:37;;;;;;;1.02;0.50;;;25.00;43.40;;;;;;5034346;28;20028;-65
2023/08/31 12:29:06;;;;;;;2.70;0.70;;;24.90;43.20;;;;;;5051981;28;20033;-66
2023/08/31 12:31:33;;;;;;;1.27;0.60;;;24.90;43.00;;;;;;5052308;28;20029;-69
2023/08/31 12:34:00;;;;;;;0.82;0.40;;;24.90;42.90;;;;;;5052230;28;20025;-69
2023/08/31 12:36:26;;;;;;;0.95;0.45;;;24.80;42.70;;;;;;5043946;28;20135;-67
2023/08/31 12:38:52;;;;;;;0.90;0.40;;;24.80;42.60;;;;;;5032873;28;20029;-68
2023/08/31 12:41:20;;;;;;;0.60;0.30;;;24.80;42.40;;;;;;5051996;28;20056;-67
2023/08/31 12:43:46;;;;;;;0.85;0.30;;;24.80;42.40;;;;;;5034103;28;20347;-68
2023/08/31 12:46:13;;;;;;;1.02;0.50;;;24.70;42.30;;;;;;5051699;28;20320;-67
2023/08/31 12:48:39;;;;;;;0.73;0.50;;;24.80;42.30;;;;;;5051631;28;20436;-68
2023/08/31 12:51:05;;;;;;;0.93;0.43;;;24.70;42.20;;;;;;5051976;28;20400;-69